Latest Weather Observations for Bathurst Airport

IDN60801

Issued at 10:02 pm EST Saturday 5 September 2015 (issued every 30 minutes, with the page automatically refreshed every 10 minutes)

About weather observations | Map of weather stations | Latest weather observations for NSW | Other Formats
Station Details ID: 063291 Name: BATHURST AIRPORT AWS Lat: -33.41 Lon: 149.65 Height: 744.5 m
Data from the previous 72 hours. | See also: Recent months at Bathurst Airport
Date/Time
EST
Temp
°C
App
Temp
°C
Dew
Point
Rel
Hum
%
Delta-T
°C
Wind Press
QNH
hPa
Press
MSL
hPa
Rain
since 9 am
mm
Dir
 
Spd
km/h
Gust
km/h
Spd
kts
Gust
kts
05/10:00pm 7.9 6.3 6.5 91 0.7 ENE 4 11 2 6 1023.0 1022.7 0.0
05/09:30pm 8.8 6.6 6.4 85 1.2 SSW 7 9 4 5 1023.4 1023.0 0.0
05/09:00pm 9.4 8.5 5.9 79 1.7 CALM 0 6 0 3 1023.0 1022.7 0.0
05/08:30pm 10.3 8.2 6.6 78 1.8 S 7 9 4 5 1022.6 1022.3 0.0
05/08:00pm 10.0 8.2 7.1 82 1.4 SW 6 7 3 4 1022.2 1021.8 0.0
05/07:30pm 10.1 7.7 6.8 80 1.6 SW 9 11 5 6 1022.1 1021.7 0.0
05/07:00pm 11.3 8.1 6.8 74 2.2 SW 13 15 7 8 1022.1 1021.7 0.0
05/06:30pm 11.8 9.1 7.5 75 2.2 SW 11 13 6 7 1021.5 1021.2 0.0
05/06:00pm 12.2 10.5 7.5 73 2.4 SW 6 9 3 5 1021.0 1020.6 0.0
05/05:30pm 12.2 9.8 6.9 70 2.6 SSW 9 11 5 6 1020.7 1020.3 0.0
05/05:00pm 12.5 9.7 7.0 69 2.8 SSW 11 13 6 7 1020.6 1020.2 0.0
05/04:30pm 14.5 10.4 6.1 57 4.2 SW 17 19 9 10 1020.1 1019.8 0.0
05/04:00pm 15.6 13.1 6.6 55 4.6 SW 9 15 5 8 1020.1 1019.8 0.0
05/03:30pm 15.9 11.8 4.3 46 5.6 WSW 15 19 8 10 1020.1 1019.8 0.0
05/03:00pm 14.6 10.5 4.3 50 4.9 W 15 22 8 12 1020.2 1019.9 0.0
05/02:30pm 16.1 13.0 5.4 49 5.3 NW 11 19 6 10 1020.1 1019.8 0.0
05/02:00pm 14.9 11.3 5.1 52 4.8 W 13 20 7 11 1020.2 1019.9 0.0
05/01:30pm 15.2 10.7 6.0 54 4.6 W 19 24 10 13 1020.5 1020.1 0.0
05/01:00pm 14.5 11.7 6.8 60 3.9 SW 11 17 6 9 1020.9 1020.5 0.0
05/12:30pm 13.4 10.3 7.4 67 3.1 SW 13 17 7 9 1021.4 1021.1 0.0
05/12:00pm 13.9 10.5 5.8 58 4.0 W 13 20 7 11 1021.6 1021.3 0.0
05/11:30am 15.2 11.5 8.0 62 3.8 WNW 17 24 9 13 1022.1 1021.7 0.0
05/11:00am 13.9 11.0 6.5 61 3.7 WNW 11 19 6 10 1022.5 1022.2 0.0
05/10:30am 12.9 11.3 8.0 72 2.5 NW 6 11 3 6 1022.9 1022.6 0.0
05/10:00am 11.6 10.7 7.7 77 2.0 NNE 2 6 1 3 1023.0 1022.7 0.0
05/09:30am 10.1 9.5 7.5 84 1.3 CALM 0 0 0 0 1023.3 1022.9 0.0
05/09:00am 8.5 6.6 7.4 93 0.5 WSW 7 9 4 5 1023.4 1023.0 0.0
05/08:30am 7.6 5.8 7.3 98 0.1 WSW 6 7 3 4 1023.3 1022.9 0.0
05/08:00am 6.3 4.1 6.2 99 0.0 SW 7 7 4 4 1022.9 1022.6 0.0
05/07:30am 5.7 3.6 5.6 99 0.0 SW 6 7 3 4 1022.7 1022.4 0.0
05/07:00am 4.9 3.0 4.8 99 0.0 N 4 7 2 4 1022.4 1022.0 0.0
05/06:30am 4.7 1.8 4.6 99 0.0 SE 9 11 5 6 1022.1 1021.7 0.0
05/06:00am 5.2 2.4 5.2 100 0.0 SE 9 13 5 7 1022.0 1021.6 0.0
05/05:30am 5.2 2.8 5.2 100 0.0 SSE 7 9 4 5 1021.9 1021.5 0.0
05/05:00am 5.5 3.2 5.5 100 0.0 SSE 7 9 4 5 1021.6 1021.3 0.0
05/04:30am 5.4 3.2 5.4 100 0.0 SE 6 9 3 5 1021.5 1021.2 0.0
05/04:00am 5.9 5.0 5.9 100 0.0 CALM 0 0 0 0 1021.2 1020.8 0.0
05/03:30am 5.4 4.4 5.4 100 0.0 CALM 0 0 0 0 1021.1 1020.7 0.0
05/03:00am 4.9 3.7 4.8 99 0.0 CALM 0 0 0 0 1021.2 1020.8 0.0
05/02:30am 5.9 3.8 5.8 99 0.0 E 6 9 3 5 1021.4 1021.1 0.0
05/02:00am 6.1 3.9 6.0 99 0.0 SSE 7 7 4 4 1021.8 1021.4 0.0
05/01:30am 6.3 5.0 6.2 99 0.0 NNW 2 7 1 4 1022.0 1021.6 0.0
05/01:00am 6.5 5.7 6.4 99 0.0 CALM 0 0 0 0 1022.1 1021.7 0.0
05/12:30am 7.4 6.8 7.3 99 0.0 CALM 0 0 0 0 1022.2 1021.8 0.0
05/12:00am 7.1 6.4 7.0 99 0.0 CALM 0 0 0 0 1022.6 1022.3 0.0
 
Date/Time
EST
Temp
°C
App
Temp
°C
Dew
Point
Rel
Hum
%
Delta-T
°C
Wind Press
QNH
hPa
Press
MSL
hPa
Rain
since 9 am
mm
Dir
 
Spd
km/h
Gust
km/h
Spd
kts
Gust
kts
04/11:30pm 7.6 7.0 7.5 99 0.0 CALM 0 0 0 0 1022.6 1022.3 0.0
04/11:00pm 7.5 6.1 7.4 99 0.0 NNW 4 7 2 4 1022.9 1022.6 0.0
04/10:30pm 8.4 8.0 8.1 98 0.1 CALM 0 0 0 0 1022.8 1022.5 0.0
04/10:00pm 8.8 8.4 8.2 96 0.3 CALM 0 0 0 0 1022.8 1022.5 0.0
04/09:30pm 9.6 9.3 8.7 94 0.5 CALM 0 0 0 0 1022.7 1022.4 0.0
04/09:00pm 9.4 8.8 8.8 96 0.3 NNE 2 6 1 3 1022.4 1022.0 0.0
04/08:30pm 9.3 8.1 8.2 93 0.6 NNE 4 6 2 3 1022.3 1021.9 0.0
04/08:00pm 10.3 9.7 7.4 82 1.4 CALM 0 0 0 0 1022.4 1022.0 0.0
04/07:30pm 10.0 8.7 7.6 85 1.2 NE 4 6 2 3 1022.2 1021.8 0.0
04/07:00pm 10.0 8.5 8.4 90 0.8 NE 6 7 3 4 1022.1 1021.7 0.0
04/06:30pm 10.2 8.8 8.8 91 0.7 NNE 6 7 3 4 1021.8 1021.4 0.0
04/06:00pm 11.0 9.6 8.9 87 1.1 NNW 6 9 3 5 1021.4 1021.1 0.0
04/05:30pm 12.1 10.1 8.6 79 1.8 NNW 9 11 5 6 1021.3 1021.0 0.0
04/05:00pm 13.0 10.5 8.3 73 2.4 NW 11 15 6 8 1021.1 1020.7 0.0
04/04:30pm 13.0 10.9 8.3 73 2.4 NW 9 13 5 7 1021.1 1020.7 0.0
04/04:00pm 13.8 10.3 7.1 64 3.4 WNW 15 20 8 11 1020.9 1020.5 0.0
04/03:30pm 14.0 11.1 6.4 60 3.8 WNW 11 15 6 8 1020.9 1020.5 0.0
04/03:00pm 15.2 13.1 6.7 57 4.3 NW 7 15 4 8 1021.0 1020.6 0.0
04/02:30pm 15.4 12.9 6.7 56 4.4 WNW 9 20 5 11 1021.2 1020.8 0.0
04/02:00pm 14.9 12.3 7.9 63 3.6 N 11 17 6 9 1021.3 1021.0 0.0
04/01:30pm 14.0 11.1 6.6 61 3.7 WNW 11 15 6 8 1021.5 1021.2 0.0
04/01:00pm 14.5 11.5 6.1 57 4.2 WNW 11 15 6 8 1021.8 1021.4 0.0
04/12:30pm 14.1 11.6 6.5 60 3.8 W 9 15 5 8 1022.0 1021.6 0.0
04/12:00pm 14.1 12.2 8.9 71 2.7 WSW 9 13 5 7 1022.3 1021.9 0.0
04/11:30am 12.9 10.9 6.9 67 3.0 WNW 7 13 4 7 1022.6 1022.3 0.0
04/11:00am 12.2 10.9 7.7 74 2.3 N 4 9 2 5 1022.6 1022.3 0.0
04/10:30am 11.1 10.3 8.3 83 1.4 NNW 2 11 1 6 1022.7 1022.4 0.0
04/10:00am 10.2 9.0 8.0 86 1.1 N 4 7 2 4 1022.7 1022.4 0.0
04/09:30am 9.8 8.4 8.7 93 0.6 NE 6 9 3 5 1022.7 1022.4 0.0
04/09:00am 9.1 8.7 8.3 95 0.4 CALM 0 0 0 0 1022.8 1022.5 1.6
04/08:30am 8.0 7.5 7.9 99 0.0 CALM 0 0 0 0 1022.5 1022.2 1.6
04/08:00am 7.0 6.3 7.0 100 0.0 CALM 0 0 0 0 1022.2 1021.8 1.6
04/07:30am 6.1 4.1 6.1 100 0.0 N 6 7 3 4 1021.8 1021.4 1.6
04/07:00am 5.7 3.4 5.7 100 0.0 NE 7 11 4 6 1021.0 1020.6 1.6
04/06:30am 5.1 4.0 5.1 100 0.0 CALM 0 0 0 0 1020.5 1020.1 1.6
04/06:00am 4.9 3.7 4.8 99 0.0 CALM 0 0 0 0 1020.0 1019.6 1.6
04/05:30am 5.6 3.3 5.5 99 0.0 ENE 7 13 4 7 1019.6 1019.2 1.6
04/05:00am 5.5 3.1 5.4 99 0.0 SW 7 9 4 5 1019.2 1018.8 1.6
04/04:30am 4.5 2.5 4.4 99 0.0 N 4 7 2 4 1019.1 1018.7 1.6
04/04:00am 5.2 4.1 5.1 99 0.0 CALM 0 0 0 0 1018.5 1018.1 1.6
04/03:30am 4.3 1.9 4.2 99 0.0 ENE 6 7 3 4 1018.5 1018.1 1.6
04/03:00am 5.6 4.2 5.5 99 0.0 SSE 2 9 1 5 1018.4 1018.0 1.6
04/02:30am 6.1 2.7 5.8 98 0.1 SW 13 17 7 9 1018.5 1018.1 1.6
04/02:00am 6.6 2.9 6.2 97 0.2 SW 15 19 8 10 1018.6 1018.2 1.6
04/01:30am 6.3 3.0 6.2 99 0.0 SW 13 15 7 8 1018.5 1018.1 1.6
04/01:00am 5.9 2.4 5.5 97 0.2 WSW 13 15 7 8 1018.2 1017.8 1.6
04/12:30am 7.3 3.6 6.4 94 0.4 SSW 15 17 8 9 1017.8 1017.4 1.6
04/12:00am 7.9 4.8 7.1 95 0.4 SSW 13 15 7 8 1017.6 1017.1 1.6
 
Date/Time
EST
Temp
°C
App
Temp
°C
Dew
Point
Rel
Hum
%
Delta-T
°C
Wind Press
QNH
hPa
Press
MSL
hPa
Rain
since 9 am
mm
Dir
 
Spd
km/h
Gust
km/h
Spd
kts
Gust
kts
03/11:48pm 7.8 5.1 7.2 96 0.3 SSW 11 13 6 7 1017.6 1017.1 1.6
03/11:30pm 7.8 5.4 7.2 96 0.3 SW 9 15 5 8 1017.7 1017.2 1.6
03/11:03pm 7.5 5.8 7.4 99 0.0 NW 6 7 3 4 1017.8 1017.4 1.6
03/11:00pm 7.5 5.8 7.4 99 0.0 NW 6 7 3 4 1017.8 1017.4 1.6
03/10:56pm 7.5 5.8 7.4 99 0.0 NW 6 7 3 4 1017.8 1017.4 1.6
03/10:30pm 7.7 5.7 7.1 96 0.3 S 7 9 4 5 1017.5 1017.0 1.6
03/10:00pm 7.3 5.4 6.7 96 0.3 SSW 6 9 3 5 1016.8 1016.4 1.6
03/09:30pm 6.9 5.0 6.8 99 0.0 SSW 6 7 3 4 1016.6 1016.1 1.6
03/09:02pm 7.0 4.4 6.3 95 0.3 S 9 13 5 7 1016.2 1015.7 1.6
03/09:00pm 7.0 4.5 6.4 96 0.3 SSW 9 13 5 7 1016.2 1015.7 1.6
03/08:30pm 7.1 4.1 6.2 94 0.4 SW 11 13 6 7 1015.9 1015.5 1.6
03/08:00pm 7.0 3.6 5.8 92 0.6 SW 13 19 7 10 1015.6 1015.2 1.6
03/07:30pm 6.4 3.2 4.9 90 0.7 WSW 11 13 6 7 1015.1 1014.6 1.6
03/07:00pm 7.2 3.0 5.5 89 0.8 SW 17 20 9 11 1014.3 1013.9 1.6
03/06:30pm 7.5 3.3 5.6 88 0.9 SW 17 20 9 11 1013.7 1013.2 1.6
03/06:00pm 7.5 2.8 5.1 85 1.1 WSW 19 22 10 12 1013.2 1012.7 1.6
03/05:30pm 8.4 3.7 6.0 85 1.1 WSW 20 26 11 14 1012.3 1011.8 1.6
03/05:00pm 8.4 2.1 5.5 82 1.4 WSW 28 39 15 21 1011.5 1011.0 1.6
03/04:30pm 9.6 3.1 4.8 72 2.2 WSW 28 35 15 19 1010.8 1010.2 1.6
03/04:00pm 9.9 3.9 5.1 72 2.3 W 26 30 14 16 1010.3 1009.7 1.6
03/03:30pm 10.1 4.0 4.7 69 2.5 WSW 26 32 14 17 1009.9 1009.4 1.6
03/03:00pm 10.8 3.7 5.6 70 2.5 WSW 32 39 17 21 1009.4 1008.8 1.6
03/02:30pm 11.8 6.1 6.5 70 2.6 W 26 33 14 18 1008.9 1008.3 1.6
03/02:00pm 11.2 5.1 6.5 73 2.3 W 28 35 15 19 1008.7 1008.2 1.6
03/01:30pm 9.6 5.2 7.2 85 1.2 W 20 28 11 15 1008.9 1008.3 1.6
03/01:07pm 8.4 4.4 8.1 98 0.1 W 19 26 10 14 1009.1 1008.5 1.6
03/01:00pm 7.8 3.5 7.7 99 0.0 W 20 30 11 16 1009.2 1008.6 1.6
03/12:30pm 8.9 5.1 7.4 90 0.7 W 17 22 9 12 1009.1 1008.5 1.0
03/12:27pm 9.3 5.7 8.5 95 0.4 W 17 20 9 11 1009.2 1008.6 1.0
03/12:19pm 8.3 4.5 7.7 96 0.3 WSW 17 22 9 12 1009.3 1008.7 1.0
03/12:11pm 7.7 2.3 6.3 91 0.7 W 24 35 13 19 1009.4 1008.8 1.0
03/12:00pm 9.4 3.7 5.0 74 2.1 W 24 32 13 17 1009.3 1008.7 0.0
03/11:30am 9.8 4.5 4.8 71 2.3 W 22 28 12 15 1009.3 1008.7 0.0
03/11:00am 9.6 4.8 4.6 71 2.3 W 19 28 10 15 1009.2 1008.6 0.0
03/10:30am 9.5 4.8 5.9 78 1.7 WNW 20 26 11 14 1009.0 1008.4 0.0
03/10:00am 9.1 4.3 5.5 78 1.7 WNW 20 28 11 15 1008.9 1008.3 0.0
03/09:30am 9.0 4.3 6.1 82 1.4 WNW 20 26 11 14 1008.6 1008.1 0.0
03/09:00am 8.8 4.3 6.2 84 1.3 WNW 19 26 10 14 1008.5 1008.0 8.2
03/08:30am 8.3 3.9 6.4 88 0.9 W 19 24 10 13 1007.9 1007.3 8.2
03/08:00am 8.1 4.9 6.9 92 0.6 W 13 15 7 8 1007.6 1007.0 8.2
03/07:30am 7.3 4.0 6.6 95 0.3 WNW 13 15 7 8 1007.6 1007.0 8.2
03/07:00am 6.2 2.5 6.1 99 0.0 NW 15 19 8 10 1007.2 1006.6 8.2
03/06:30am 6.1 2.0 6.0 99 0.0 NW 17 20 9 11 1006.8 1006.2 8.2
03/06:00am 5.6 2.1 5.5 99 0.0 WNW 13 15 7 8 1006.4 1005.8 8.2
03/05:30am 6.2 2.8 6.1 99 0.0 NW 13 15 7 8 1006.2 1005.6 8.2
03/05:00am 6.8 2.8 6.8 100 0.0 NNW 17 20 9 11 1006.2 1005.6 8.2
03/04:55am 6.7 2.7 6.7 100 0.0 NNW 17 19 9 10 1006.2 1005.6 8.2
03/04:30am 6.6 4.1 6.6 100 0.0 N 9 11 5 6 1006.0 1005.3 8.2
03/04:24am 6.6 4.5 6.6 100 0.0 NNE 7 11 4 6 1006.0 1005.3 8.2
03/04:00am 6.4 3.9 6.4 100 0.0 NNE 9 9 5 5 1005.7 1005.1 8.2
03/03:30am 6.6 4.7 6.6 100 0.0 N 6 9 3 5 1005.6 1005.0 8.2
03/03:00am 6.8 4.9 6.8 100 0.0 S 6 11 3 6 1005.8 1005.2 8.2
03/02:30am 7.3 5.3 7.3 100 0.0 ESE 7 9 4 5 1006.1 1005.4 8.2
03/02:00am 7.6 5.3 7.6 100 0.0 E 9 13 5 7 1006.7 1006.1 8.2
03/01:47am 7.7 5.8 7.7 100 0.0 SSE 7 11 4 6 1007.1 1006.5 8.0
03/01:30am 8.1 6.5 8.1 100 0.0 SW 6 11 3 6 1007.6 1007.0 8.0
03/01:29am 8.1 6.5 8.1 100 0.0 SW 6 13 3 7 1007.7 1007.1 8.0
03/01:00am 8.4 7.6 8.3 99 0.1 NW 2 7 1 4 1007.9 1007.3 6.8
03/12:30am 8.4 7.3 8.3 99 0.1 SSW 4 9 2 5 1008.5 1008.0 6.8
03/12:00am 8.5 6.4 8.4 99 0.1 ENE 9 15 5 8 1008.7 1008.2 6.6
 
Date/Time
EST
Temp
°C
App
Temp
°C
Dew
Point
Rel
Hum
%
Delta-T
°C
Wind Press
QNH
hPa
Press
MSL
hPa
Rain
since 9 am
mm
Dir
 
Spd
km/h
Gust
km/h
Spd
kts
Gust
kts
02/11:46pm 8.5 4.9 8.4 99 0.1 NE 17 19 9 10 1008.6 1008.1 6.4
02/11:30pm 8.5 6.4 8.4 99 0.1 WNW 9 13 5 7 1009.6 1009.0 5.6
02/11:16pm 8.7 5.1 8.3 97 0.2 W 17 20 9 11 1010.3 1009.7 3.6
02/11:00pm 10.0 7.5 6.7 80 1.6 NE 9 13 5 7 1008.5 1008.0 2.6
02/10:30pm 9.2 5.8 7.8 91 0.7 NE 15 19 8 10 1009.1 1008.5 2.6
02/10:11pm 9.6 7.3 7.5 87 1.0 NNE 9 15 5 8 1009.9 1009.4 2.4

Other Formats:

Comma delimited format used in spreadsheet applications
http://www.bom.gov.au/fwo/IDN60801/IDN60801.94729.axf

JavaScript Object Notation format (JSON) in row-major order
http://www.bom.gov.au/fwo/IDN60801/IDN60801.94729.json